sensor_id;sensor_type;location;lat;lon;timestamp;pressure;altitude;pressure_sealevel;temperature;humidity
48668;BME280;34453;52.198;5.004;2023-04-26T00:02:11;102112.31;;;4.36;100.00
48668;BME280;34453;52.198;5.004;2023-04-26T00:04:39;102113.94;;;4.39;100.00
48668;BME280;34453;52.198;5.004;2023-04-26T00:07:05;102115.13;;;4.32;100.00
48668;BME280;34453;52.198;5.004;2023-04-26T00:09:31;102116.38;;;4.23;100.00
48668;BME280;34453;52.198;5.004;2023-04-26T00:11:57;102114.06;;;4.17;100.00
48668;BME280;34453;52.198;5.004;2023-04-26T00:14:23;102118.66;;;4.10;100.00
48668;BME280;34453;52.198;5.004;2023-04-26T00:16:48;102121.47;;;4.06;100.00
48668;BME280;34453;52.198;5.004;2023-04-26T00:19:13;102131.31;;;3.98;100.00
48668;BME280;34453;52.198;5.004;2023-04-26T00:21:40;102129.69;;;3.95;100.00
48668;BME280;34453;52.198;5.004;2023-04-26T00:24:06;102134.09;;;3.93;100.00
48668;BME280;34453;52.198;5.004;2023-04-26T00:26:32;102134.97;;;3.93;100.00
48668;BME280;34453;52.198;5.004;2023-04-26T00:28:58;102134.09;;;3.93;100.00
48668;BME280;34453;52.198;5.004;2023-04-26T00:31:24;102130.03;;;3.87;100.00
48668;BME280;34453;52.198;5.004;2023-04-26T00:33:50;102120.91;;;3.79;100.00
48668;BME280;34453;52.198;5.004;2023-04-26T00:36:15;102125.75;;;3.66;100.00
48668;BME280;34453;52.198;5.004;2023-04-26T00:38:46;102122.47;;;3.62;100.00
48668;BME280;34453;52.198;5.004;2023-04-26T00:41:12;102124.78;;;3.68;100.00
48668;BME280;34453;52.198;5.004;2023-04-26T00:43:39;102123.72;;;3.74;100.00
48668;BME280;34453;52.198;5.004;2023-04-26T00:46:06;102120.91;;;3.79;100.00
48668;BME280;34453;52.198;5.004;2023-04-26T00:48:32;102120.91;;;3.79;100.00
48668;BME280;34453;52.198;5.004;2023-04-26T00:50:59;102127.50;;;3.86;100.00
48668;BME280;34453;52.198;5.004;2023-04-26T00:53:25;102131.72;;;3.88;100.00
48668;BME280;34453;52.198;5.004;2023-04-26T00:55:51;102123.75;;;3.93;100.00
48668;BME280;34453;52.198;5.004;2023-04-26T00:58:16;102132.28;;;3.95;100.00
48668;BME280;34453;52.198;5.004;2023-04-26T01:00:45;102121.94;;;3.95;100.00
48668;BME280;34453;52.198;5.004;2023-04-26T01:03:10;102119.34;;;3.95;100.00
48668;BME280;34453;52.198;5.004;2023-04-26T01:05:39;102118.84;;;3.87;100.00
48668;BME280;34453;52.198;5.004;2023-04-26T01:08:05;102116.94;;;3.90;100.00
48668;BME280;34453;52.198;5.004;2023-04-26T01:10:34;102123.25;;;3.85;100.00
48668;BME280;34453;52.198;5.004;2023-04-26T01:13:00;102114.19;;;3.74;100.00
48668;BME280;34453;52.198;5.004;2023-04-26T01:15:27;102117.16;;;3.65;100.00
48668;BME280;34453;52.198;5.004;2023-04-26T01:17:55;102121.72;;;3.60;100.00
48668;BME280;34453;52.198;5.004;2023-04-26T01:20:20;102117.47;;;3.58;100.00
48668;BME280;34453;52.198;5.004;2023-04-26T01:22:46;102114.25;;;3.52;100.00
48668;BME280;34453;52.198;5.004;2023-04-26T01:25:11;102122.84;;;3.53;100.00
48668;BME280;34453;52.198;5.004;2023-04-26T01:27:37;102130.56;;;3.55;100.00
48668;BME280;34453;52.198;5.004;2023-04-26T01:30:03;102127.78;;;3.59;100.00
48668;BME280;34453;52.198;5.004;2023-04-26T01:32:29;102130.59;;;3.53;100.00
48668;BME280;34453;52.198;5.004;2023-04-26T01:34:55;102128.94;;;3.52;100.00
48668;BME280;34453;52.198;5.004;2023-04-26T01:37:20;102127.13;;;3.54;100.00
48668;BME280;34453;52.198;5.004;2023-04-26T01:39:45;102130.75;;;3.50;100.00
48668;BME280;34453;52.198;5.004;2023-04-26T01:42:11;102122.22;;;3.48;100.00
48668;BME280;34453;52.198;5.004;2023-04-26T01:44:36;102129.91;;;3.49;100.00
48668;BME280;34453;52.198;5.004;2023-04-26T01:47:02;102122.06;;;3.51;100.00
48668;BME280;34453;52.198;5.004;2023-04-26T01:49:27;102123.56;;;3.57;100.00
48668;BME280;34453;52.198;5.004;2023-04-26T01:51:54;102117.56;;;3.56;100.00
48668;BME280;34453;52.198;5.004;2023-04-26T01:54:19;102111.47;;;3.57;100.00
48668;BME280;34453;52.198;5.004;2023-04-26T01:56:45;102116.13;;;3.49;100.00
48668;BME280;34453;52.198;5.004;2023-04-26T01:59:10;102108.69;;;3.41;100.00
48668;BME280;34453;52.198;5.004;2023-04-26T02:01:36;102117.53;;;3.36;100.00
48668;BME280;34453;52.198;5.004;2023-04-26T02:04:01;102113.47;;;3.30;100.00
48668;BME280;34453;52.198;5.004;2023-04-26T02:06:27;102125.44;;;3.32;100.00
48668;BME280;34453;52.198;5.004;2023-04-26T02:08:52;102119.59;;;3.27;100.00
48668;BME280;34453;52.198;5.004;2023-04-26T02:11:18;102122.00;;;3.32;100.00
48668;BME280;34453;52.198;5.004;2023-04-26T02:13:43;102126.22;;;3.35;100.00
48668;BME280;34453;52.198;5.004;2023-04-26T02:16:09;102116.09;;;3.28;100.00
48668;BME280;34453;52.198;5.004;2023-04-26T02:18:34;102124.78;;;3.27;100.00
48668;BME280;34453;52.198;5.004;2023-04-26T02:21:00;102122.06;;;3.30;100.00
48668;BME280;34453;52.198;5.004;2023-04-26T02:23:25;102122.84;;;3.32;100.00
48668;BME280;34453;52.198;5.004;2023-04-26T02:25:51;102122.84;;;3.32;100.00
48668;BME280;34453;52.198;5.004;2023-04-26T02:28:16;102128.97;;;3.30;100.00
48668;BME280;34453;52.198;5.004;2023-04-26T02:30:42;102122.19;;;3.27;100.00
48668;BME280;34453;52.198;5.004;2023-04-26T02:33:07;102122.19;;;3.27;100.00
48668;BME280;34453;52.198;5.004;2023-04-26T02:35:34;102119.47;;;3.30;100.00
48668;BME280;34453;52.198;5.004;2023-04-26T02:38:00;102121.88;;;3.35;100.00
48668;BME280;34453;52.198;5.004;2023-04-26T02:40:26;102134.75;;;3.37;100.00
48668;BME280;34453;52.198;5.004;2023-04-26T02:42:51;102122.69;;;3.36;100.00
48668;BME280;34453;52.198;5.004;2023-04-26T02:45:17;102121.16;;;3.31;100.00
48668;BME280;34453;52.198;5.004;2023-04-26T02:47:42;102129.81;;;3.30;100.00
48668;BME280;34453;52.198;5.004;2023-04-26T02:50:08;102124.63;;;3.30;100.00
48668;BME280;34453;52.198;5.004;2023-04-26T02:52:34;102128.00;;;3.32;100.00
48668;BME280;34453;52.198;5.004;2023-04-26T02:55:00;102116.00;;;3.31;100.00
48668;BME280;34453;52.198;5.004;2023-04-26T02:57:26;102121.03;;;3.35;100.00
48668;BME280;34453;52.198;5.004;2023-04-26T02:59:52;102110.75;;;3.33;100.00
48668;BME280;34453;52.198;5.004;2023-04-26T03:02:17;102114.28;;;3.30;100.00
48668;BME280;34453;52.198;5.004;2023-04-26T03:04:43;102107.56;;;3.26;100.00
48668;BME280;34453;52.198;5.004;2023-04-26T03:07:08;102111.16;;;3.22;100.00
48668;BME280;34453;52.198;5.004;2023-04-26T03:09:33;102106.00;;;3.22;100.00
48668;BME280;34453;52.198;5.004;2023-04-26T03:12:02;102109.09;;;3.10;100.00
48668;BME280;34453;52.198;5.004;2023-04-26T03:14:27;102107.25;;;3.14;100.00
48668;BME280;34453;52.198;5.004;2023-04-26T03:16:53;102104.75;;;3.10;100.00
48668;BME280;34453;52.198;5.004;2023-04-26T03:19:19;102109.16;;;3.08;100.00
48668;BME280;34453;52.198;5.004;2023-04-26T03:21:44;102108.56;;;3.02;100.00
48668;BME280;34453;52.198;5.004;2023-04-26T03:24:10;102114.88;;;2.95;100.00
48668;BME280;34453;52.198;5.004;2023-04-26T03:26:35;102113.34;;;2.89;100.00
48668;BME280;34453;52.198;5.004;2023-04-26T03:29:01;102104.13;;;2.83;100.00
48668;BME280;34453;52.198;5.004;2023-04-26T03:31:27;102109.53;;;2.77;100.00
48668;BME280;34453;52.198;5.004;2023-04-26T03:33:52;102103.66;;;2.74;100.00
48668;BME280;34453;52.198;5.004;2023-04-26T03:36:18;102096.66;;;2.76;100.00
48668;BME280;34453;52.198;5.004;2023-04-26T03:38:43;102105.88;;;2.83;100.00
48668;BME280;34453;52.198;5.004;2023-04-26T03:41:08;102095.44;;;2.84;100.00
48668;BME280;34453;52.198;5.004;2023-04-26T03:43:34;102101.16;;;2.93;100.00
48668;BME280;34453;52.198;5.004;2023-04-26T03:45:59;102095.94;;;2.94;100.00
48668;BME280;34453;52.198;5.004;2023-04-26T03:48:25;102107.13;;;2.95;100.00
48668;BME280;34453;52.198;5.004;2023-04-26T03:50:51;102104.41;;;2.98;100.00
48668;BME280;34453;52.198;5.004;2023-04-26T03:53:17;102113.13;;;2.95;100.00
48668;BME280;34453;52.198;5.004;2023-04-26T03:55:42;102105.69;;;2.87;100.00
48668;BME280;34453;52.198;5.004;2023-04-26T03:58:07;102109.16;;;2.86;100.00
48668;BME280;34453;52.198;5.004;2023-04-26T04:00:36;102109.16;;;2.86;100.00
48668;BME280;34453;52.198;5.004;2023-04-26T04:03:01;102102.41;;;2.82;100.00
48668;BME280;34453;52.198;5.004;2023-04-26T04:05:27;102100.75;;;2.81;100.00
48668;BME280;34453;52.198;5.004;2023-04-26T04:07:52;102099.72;;;2.85;100.00
48668;BME280;34453;52.198;5.004;2023-04-26T04:10:17;102092.53;;;2.94;100.00
48668;BME280;34453;52.198;5.004;2023-04-26T04:12:43;102097.00;;;2.88;100.00
48668;BME280;34453;52.198;5.004;2023-04-26T04:15:09;102091.97;;;2.85;100.00
48668;BME280;34453;52.198;5.004;2023-04-26T04:17:34;102092.94;;;2.83;100.00
48668;BME280;34453;52.198;5.004;2023-04-26T04:20:01;102094.63;;;2.84;100.00
48668;BME280;34453;52.198;5.004;2023-04-26T04:22:27;102090.97;;;2.89;100.00
48668;BME280;34453;52.198;5.004;2023-04-26T04:24:53;102093.41;;;2.93;100.00
48668;BME280;34453;52.198;5.004;2023-04-26T04:27:18;102098.34;;;2.99;100.00
48668;BME280;34453;52.198;5.004;2023-04-26T04:29:45;102102.50;;;3.03;100.00
48668;BME280;34453;52.198;5.004;2023-04-26T04:32:11;102106.66;;;3.07;100.00
48668;BME280;34453;52.198;5.004;2023-04-26T04:34:37;102101.34;;;3.10;100.00
48668;BME280;34453;52.198;5.004;2023-04-26T04:37:03;102101.75;;;3.21;100.00
48668;BME280;34453;52.198;5.004;2023-04-26T04:39:28;102105.56;;;3.33;100.00
48668;BME280;34453;52.198;5.004;2023-04-26T04:41:54;102104.34;;;3.42;100.00
48668;BME280;34453;52.198;5.004;2023-04-26T04:44:19;102102.34;;;3.48;100.00
48668;BME280;34453;52.198;5.004;2023-04-26T04:46:45;102099.69;;;3.50;100.00
48668;BME280;34453;52.198;5.004;2023-04-26T04:49:11;102104.28;;;3.64;100.00
48668;BME280;34453;52.198;5.004;2023-04-26T04:51:37;102095.44;;;3.69;100.00
48668;BME280;34453;52.198;5.004;2023-04-26T04:54:14;102098.91;;;3.68;100.00
48668;BME280;34453;52.198;5.004;2023-04-26T04:56:40;102102.03;;;3.77;100.00
48668;BME280;34453;52.198;5.004;2023-04-26T04:59:06;102106.78;;;3.86;100.00
48668;BME280;34453;52.198;5.004;2023-04-26T05:01:32;102112.81;;;3.86;100.00
48668;BME280;34453;52.198;5.004;2023-04-26T05:03:58;102101.34;;;3.92;100.00
48668;BME280;34453;52.198;5.004;2023-04-26T05:06:23;102106.13;;;4.01;100.00
48668;BME280;34453;52.198;5.004;2023-04-26T05:08:49;102111.94;;;4.06;100.00
48668;BME280;34453;52.198;5.004;2023-04-26T05:11:15;102098.72;;;4.12;100.00
48668;BME280;34453;52.198;5.004;2023-04-26T05:13:40;102106.22;;;4.19;100.00
48668;BME280;34453;52.198;5.004;2023-04-26T05:16:06;102105.31;;;4.20;100.00
48668;BME280;34453;52.198;5.004;2023-04-26T05:18:31;102103.63;;;4.19;100.00
48668;BME280;34453;52.198;5.004;2023-04-26T05:20:57;102112.03;;;4.24;100.00
48668;BME280;34453;52.198;5.004;2023-04-26T05:23:22;102107.56;;;4.27;100.00
48668;BME280;34453;52.198;5.004;2023-04-26T05:25:48;102104.19;;;4.25;100.00
48668;BME280;34453;52.198;5.004;2023-04-26T05:28:13;102114.41;;;4.28;100.00
48668;BME280;34453;52.198;5.004;2023-04-26T05:30:39;102102.94;;;4.34;100.00
48668;BME280;34453;52.198;5.004;2023-04-26T05:33:05;102110.63;;;4.35;100.00
48668;BME280;34453;52.198;5.004;2023-04-26T05:35:31;102107.97;;;4.37;100.00
48668;BME280;34453;52.198;5.004;2023-04-26T05:37:57;102095.72;;;4.41;100.00
48668;BME280;34453;52.198;5.004;2023-04-26T05:40:22;102103.34;;;4.44;100.00
48668;BME280;34453;52.198;5.004;2023-04-26T05:42:49;102107.13;;;4.55;100.00
48668;BME280;34453;52.198;5.004;2023-04-26T05:45:15;102110.22;;;4.64;100.00
48668;BME280;34453;52.198;5.004;2023-04-26T05:47:40;102104.59;;;4.73;100.00
48668;BME280;34453;52.198;5.004;2023-04-26T05:50:06;102104.09;;;4.84;100.00
48668;BME280;34453;52.198;5.004;2023-04-26T05:52:32;102104.00;;;4.85;100.00
48668;BME280;34453;52.198;5.004;2023-04-26T05:54:58;102101.25;;;4.88;100.00
48668;BME280;34453;52.198;5.004;2023-04-26T05:57:23;102102.75;;;4.94;100.00
48668;BME280;34453;52.198;5.004;2023-04-26T05:59:48;102111.28;;;4.96;100.00
48668;BME280;34453;52.198;5.004;2023-04-26T06:02:14;102106.09;;;4.96;100.00
48668;BME280;34453;52.198;5.004;2023-04-26T06:04:39;102103.41;;;4.97;100.00
48668;BME280;34453;52.198;5.004;2023-04-26T06:07:05;102112.19;;;4.95;100.00
48668;BME280;34453;52.198;5.004;2023-04-26T06:09:31;102106.16;;;4.94;100.00
48668;BME280;34453;52.198;5.004;2023-04-26T06:11:57;102118.69;;;5.04;100.00
48668;BME280;34453;52.198;5.004;2023-04-26T06:14:22;102115.19;;;5.05;100.00
48668;BME280;34453;52.198;5.004;2023-04-26T06:16:48;102115.66;;;5.13;100.00
48668;BME280;34453;52.198;5.004;2023-04-26T06:19:13;102121.59;;;5.15;100.00
48668;BME280;34453;52.198;5.004;2023-04-26T06:21:39;102130.00;;;5.20;100.00
48668;BME280;34453;52.198;5.004;2023-04-26T06:24:04;102131.41;;;5.27;100.00
48668;BME280;34453;52.198;5.004;2023-04-26T06:26:30;102131.31;;;5.29;100.00
48668;BME280;34453;52.198;5.004;2023-04-26T06:28:56;102131.84;;;5.35;100.00
48668;BME280;34453;52.198;5.004;2023-04-26T06:31:21;102128.94;;;5.42;100.00
48668;BME280;34453;52.198;5.004;2023-04-26T06:33:47;102135.44;;;5.50;100.00
48668;BME280;34453;52.198;5.004;2023-04-26T06:36:13;102134.31;;;5.56;100.00
48668;BME280;34453;52.198;5.004;2023-04-26T06:38:38;102133.31;;;5.58;100.00
48668;BME280;34453;52.198;5.004;2023-04-26T06:41:04;102134.91;;;5.61;100.00
48668;BME280;34453;52.198;5.004;2023-04-26T06:43:30;102134.44;;;5.70;100.00
48668;BME280;34453;52.198;5.004;2023-04-26T06:45:55;102132.19;;;5.80;100.00
48668;BME280;34453;52.198;5.004;2023-04-26T06:48:21;102124.16;;;5.85;100.00
48668;BME280;34453;52.198;5.004;2023-04-26T06:50:46;102132.59;;;5.90;100.00
48668;BME280;34453;52.198;5.004;2023-04-26T06:53:12;102130.66;;;5.93;100.00
48668;BME280;34453;52.198;5.004;2023-04-26T06:55:37;102129.53;;;5.99;100.00
48668;BME280;34453;52.198;5.004;2023-04-26T06:58:03;102125.88;;;6.03;100.00
48668;BME280;34453;52.198;5.004;2023-04-26T07:00:28;102133.66;;;6.03;100.00
48668;BME280;34453;52.198;5.004;2023-04-26T07:02:54;102129.06;;;6.08;100.00
48668;BME280;34453;52.198;5.004;2023-04-26T07:05:20;102129.41;;;6.18;100.00
48668;BME280;34453;52.198;5.004;2023-04-26T07:07:45;102129.00;;;6.26;100.00
48668;BME280;34453;52.198;5.004;2023-04-26T07:10:12;102129.00;;;6.26;100.00
48668;BME280;34453;52.198;5.004;2023-04-26T07:12:38;102123.38;;;6.33;100.00
48668;BME280;34453;52.198;5.004;2023-04-26T07:15:04;102123.91;;;6.40;100.00
48668;BME280;34453;52.198;5.004;2023-04-26T07:17:31;102126.69;;;6.37;100.00
48668;BME280;34453;52.198;5.004;2023-04-26T07:19:56;102128.84;;;6.29;100.00
48668;BME280;34453;52.198;5.004;2023-04-26T07:22:22;102132.63;;;6.23;100.00
48668;BME280;34453;52.198;5.004;2023-04-26T07:24:48;102140.44;;;6.39;100.00
48668;BME280;34453;52.198;5.004;2023-04-26T07:27:13;102135.16;;;6.56;100.00
48668;BME280;34453;52.198;5.004;2023-04-26T07:29:39;102143.56;;;6.61;100.00
48668;BME280;34453;52.198;5.004;2023-04-26T07:32:04;102142.78;;;6.59;100.00
48668;BME280;34453;52.198;5.004;2023-04-26T07:34:30;102140.88;;;6.63;100.00
48668;BME280;34453;52.198;5.004;2023-04-26T07:36:56;102139.69;;;6.53;100.00
48668;BME280;34453;52.198;5.004;2023-04-26T07:39:31;102141.84;;;6.44;100.00
48668;BME280;34453;52.198;5.004;2023-04-26T07:41:57;102142.03;;;6.41;100.00
48668;BME280;34453;52.198;5.004;2023-04-26T07:44:22;102144.38;;;6.46;100.00
48668;BME280;34453;52.198;5.004;2023-04-26T07:46:48;102143.38;;;6.49;100.00
48668;BME280;34453;52.198;5.004;2023-04-26T07:49:13;102136.31;;;6.67;100.00
48668;BME280;34453;52.198;5.004;2023-04-26T07:51:43;102143.13;;;6.69;100.00
48668;BME280;34453;52.198;5.004;2023-04-26T07:54:09;102145.88;;;6.82;100.00
48668;BME280;34453;52.198;5.004;2023-04-26T07:56:35;102146.72;;;6.98;100.00
48668;BME280;34453;52.198;5.004;2023-04-26T07:59:00;102143.03;;;6.87;100.00
48668;BME280;34453;52.198;5.004;2023-04-26T08:01:26;102144.53;;;7.06;100.00
48668;BME280;34453;52.198;5.004;2023-04-26T08:03:52;102143.00;;;7.18;100.00
48668;BME280;34453;52.198;5.004;2023-04-26T08:06:18;102149.47;;;7.27;100.00
48668;BME280;34453;52.198;5.004;2023-04-26T08:08:44;102144.63;;;7.35;100.00
48668;BME280;34453;52.198;5.004;2023-04-26T08:11:13;102152.84;;;7.43;100.00
48668;BME280;34453;52.198;5.004;2023-04-26T08:13:38;102146.91;;;7.56;100.00
48668;BME280;34453;52.198;5.004;2023-04-26T08:16:04;102144.34;;;7.70;100.00
48668;BME280;34453;52.198;5.004;2023-04-26T08:18:30;102139.53;;;7.78;100.00
48668;BME280;34453;52.198;5.004;2023-04-26T08:20:55;102141.94;;;7.96;100.00
48668;BME280;34453;52.198;5.004;2023-04-26T08:23:21;102150.63;;;8.10;100.00
48668;BME280;34453;52.198;5.004;2023-04-26T08:25:47;102144.03;;;8.05;100.00
48668;BME280;34453;52.198;5.004;2023-04-26T08:28:14;102141.13;;;8.09;100.00
48668;BME280;34453;52.198;5.004;2023-04-26T08:30:40;102140.66;;;8.17;100.00
48668;BME280;34453;52.198;5.004;2023-04-26T08:33:05;102138.06;;;8.32;100.00
48668;BME280;34453;52.198;5.004;2023-04-26T08:35:31;102142.81;;;8.25;100.00
48668;BME280;34453;52.198;5.004;2023-04-26T08:37:56;102151.31;;;8.43;100.00
48668;BME280;34453;52.198;5.004;2023-04-26T08:40:23;102142.31;;;8.61;100.00
48668;BME280;34453;52.198;5.004;2023-04-26T08:42:49;102144.31;;;8.85;100.00
48668;BME280;34453;52.198;5.004;2023-04-26T08:45:17;102143.66;;;8.81;100.00
48668;BME280;34453;52.198;5.004;2023-04-26T08:47:47;102144.38;;;8.56;100.00
48668;BME280;34453;52.198;5.004;2023-04-26T08:50:14;102140.75;;;8.59;100.00
48668;BME280;34453;52.198;5.004;2023-04-26T08:52:41;102147.03;;;8.83;100.00
48668;BME280;34453;52.198;5.004;2023-04-26T08:55:08;102143.66;;;8.81;100.00
48668;BME280;34453;52.198;5.004;2023-04-26T08:57:34;102141.28;;;8.64;100.00
48668;BME280;34453;52.198;5.004;2023-04-26T09:00:03;102140.06;;;8.69;100.00
48668;BME280;34453;52.198;5.004;2023-04-26T09:02:34;102137.38;;;8.98;100.00
48668;BME280;34453;52.198;5.004;2023-04-26T09:05:01;102136.56;;;9.10;100.00
48668;BME280;34453;52.198;5.004;2023-04-26T09:07:30;102134.56;;;9.01;100.00
48668;BME280;34453;52.198;5.004;2023-04-26T09:09:57;102139.03;;;8.99;100.00
48668;BME280;34453;52.198;5.004;2023-04-26T09:12:23;102137.56;;;8.95;100.00
48668;BME280;34453;52.198;5.004;2023-04-26T09:14:49;102143.91;;;8.91;100.00
48668;BME280;34453;52.198;5.004;2023-04-26T09:19:49;102136.56;;;8.56;100.00
48668;BME280;34453;52.198;5.004;2023-04-26T09:22:30;102142.53;;;8.58;100.00
48668;BME280;34453;52.198;5.004;2023-04-26T09:24:56;102150.06;;;8.63;100.00
48668;BME280;34453;52.198;5.004;2023-04-26T09:27:21;102154.03;;;8.68;100.00
48668;BME280;34453;52.198;5.004;2023-04-26T09:32:22;102146.34;;;8.53;100.00
48668;BME280;34453;52.198;5.004;2023-04-26T09:34:49;102151.94;;;8.61;100.00
48668;BME280;34453;52.198;5.004;2023-04-26T09:37:14;102156.22;;;8.47;100.00
48668;BME280;34453;52.198;5.004;2023-04-26T09:39:41;102149.53;;;8.43;100.00
48668;BME280;34453;52.198;5.004;2023-04-26T09:42:09;102147.19;;;8.39;100.00
48668;BME280;34453;52.198;5.004;2023-04-26T09:44:37;102149.59;;;8.42;100.00
48668;BME280;34453;52.198;5.004;2023-04-26T09:47:08;102151.63;;;8.51;100.00
48668;BME280;34453;52.198;5.004;2023-04-26T09:49:49;102147.25;;;8.66;100.00
48668;BME280;34453;52.198;5.004;2023-04-26T09:52:19;102153.16;;;8.82;100.00
48668;BME280;34453;52.198;5.004;2023-04-26T09:57:15;102153.75;;;9.00;100.00
48668;BME280;34453;52.198;5.004;2023-04-26T09:59:49;102147.09;;;8.82;100.00
48668;BME280;34453;52.198;5.004;2023-04-26T10:02:20;102145.47;;;8.66;100.00
48668;BME280;34453;52.198;5.004;2023-04-26T10:04:51;102142.13;;;8.64;100.00
48668;BME280;34453;52.198;5.004;2023-04-26T10:07:19;102135.25;;;8.63;100.00
48668;BME280;34453;52.198;5.004;2023-04-26T10:09:46;102134.66;;;8.73;100.00
48668;BME280;34453;52.198;5.004;2023-04-26T10:12:14;102130.38;;;8.71;100.00
48668;BME280;34453;52.198;5.004;2023-04-26T10:14:41;102132.84;;;8.87;100.00
48668;BME280;34453;52.198;5.004;2023-04-26T10:17:07;102121.50;;;9.01;100.00
48668;BME280;34453;52.198;5.004;2023-04-26T10:19:34;102129.44;;;9.52;100.00
48668;BME280;34453;52.198;5.004;2023-04-26T10:22:07;102131.66;;;9.84;100.00
48668;BME280;34453;52.198;5.004;2023-04-26T10:24:34;102128.72;;;10.02;100.00
48668;BME280;34453;52.198;5.004;2023-04-26T10:27:00;102123.13;;;10.45;100.00
48668;BME280;34453;52.198;5.004;2023-04-26T10:32:19;102121.88;;;10.25;100.00
48668;BME280;34453;52.198;5.004;2023-04-26T10:37:33;102118.28;;;9.63;100.00
48668;BME280;34453;52.198;5.004;2023-04-26T10:40:24;102124.03;;;9.68;100.00
48668;BME280;34453;52.198;5.004;2023-04-26T10:42:50;102120.38;;;9.71;100.00
48668;BME280;34453;52.198;5.004;2023-04-26T10:45:49;102128.44;;;9.68;100.00
48668;BME280;34453;52.198;5.004;2023-04-26T10:48:19;102132.19;;;9.64;100.00
48668;BME280;34453;52.198;5.004;2023-04-26T10:53:33;102133.00;;;9.64;100.00
48668;BME280;34453;52.198;5.004;2023-04-26T10:59:13;102128.44;;;9.68;100.00
48668;BME280;34453;52.198;5.004;2023-04-26T11:01:39;102125.78;;;9.55;100.00
48668;BME280;34453;52.198;5.004;2023-04-26T11:04:09;102122.78;;;9.61;100.00
48668;BME280;34453;52.198;5.004;2023-04-26T11:06:54;102127.56;;;9.54;100.00
48668;BME280;34453;52.198;5.004;2023-04-26T11:09:47;102116.16;;;9.55;100.00
48668;BME280;34453;52.198;5.004;2023-04-26T11:12:14;102117.56;;;9.74;100.00
48668;BME280;34453;52.198;5.004;2023-04-26T11:14:44;102106.56;;;9.82;100.00
48668;BME280;34453;52.198;5.004;2023-04-26T11:17:12;102107.81;;;9.89;100.00
48668;BME280;34453;52.198;5.004;2023-04-26T11:19:40;102110.44;;;10.02;100.00
48668;BME280;34453;52.198;5.004;2023-04-26T11:22:06;102110.75;;;10.10;100.00
48668;BME280;34453;52.198;5.004;2023-04-26T11:24:33;102100.94;;;10.01;100.00
48668;BME280;34453;52.198;5.004;2023-04-26T11:27:10;102114.09;;;10.12;100.00
48668;BME280;34453;52.198;5.004;2023-04-26T11:29:36;102101.09;;;10.23;100.00
48668;BME280;34453;52.198;5.004;2023-04-26T11:32:02;102107.28;;;10.09;100.00
48668;BME280;34453;52.198;5.004;2023-04-26T11:34:32;102103.50;;;10.13;100.00
48668;BME280;34453;52.198;5.004;2023-04-26T11:36:58;102108.72;;;10.26;100.00
48668;BME280;34453;52.198;5.004;2023-04-26T11:39:25;102102.66;;;10.39;100.00
48668;BME280;34453;52.198;5.004;2023-04-26T11:41:55;102101.19;;;10.34;100.00
48668;BME280;34453;52.198;5.004;2023-04-26T11:44:28;102111.25;;;10.15;100.00
48668;BME280;34453;52.198;5.004;2023-04-26T11:46:54;102112.41;;;10.11;100.00
48668;BME280;34453;52.198;5.004;2023-04-26T11:49:19;102112.94;;;9.65;100.00
48668;BME280;34453;52.198;5.004;2023-04-26T11:51:47;102098.31;;;9.62;100.00
48668;BME280;34453;52.198;5.004;2023-04-26T11:54:28;102100.31;;;9.59;100.00
48668;BME280;34453;52.198;5.004;2023-04-26T11:56:55;102097.88;;;9.55;100.00
48668;BME280;34453;52.198;5.004;2023-04-26T11:59:27;102098.84;;;9.67;100.00
48668;BME280;34453;52.198;5.004;2023-04-26T12:01:55;102108.97;;;9.98;100.00
48668;BME280;34453;52.198;5.004;2023-04-26T12:04:30;102110.31;;;10.29;100.00
48668;BME280;34453;52.198;5.004;2023-04-26T12:06:56;102109.75;;;10.49;100.00
48668;BME280;34453;52.198;5.004;2023-04-26T12:09:29;102099.78;;;10.78;100.00
48668;BME280;34453;52.198;5.004;2023-04-26T12:11:56;102096.84;;;10.83;100.00
48668;BME280;34453;52.198;5.004;2023-04-26T12:14:38;102097.91;;;10.81;100.00
48668;BME280;34453;52.198;5.004;2023-04-26T12:17:05;102102.56;;;10.88;100.00
48668;BME280;34453;52.198;5.004;2023-04-26T12:19:34;102093.72;;;11.13;100.00
48668;BME280;34453;52.198;5.004;2023-04-26T12:22:07;102095.72;;;11.34;100.00
48668;BME280;34453;52.198;5.004;2023-04-26T12:24:33;102105.00;;;11.49;100.00
48668;BME280;34453;52.198;5.004;2023-04-26T12:27:04;102106.34;;;11.08;100.00
48668;BME280;34453;52.198;5.004;2023-04-26T12:29:31;102101.72;;;11.70;100.00
48668;BME280;34453;52.198;5.004;2023-04-26T12:31:58;102113.69;;;11.96;100.00
48668;BME280;34453;52.198;5.004;2023-04-26T12:34:23;102113.75;;;11.61;100.00
48668;BME280;34453;52.198;5.004;2023-04-26T12:36:49;102118.91;;;12.30;100.00
48668;BME280;34453;52.198;5.004;2023-04-26T12:39:14;102106.28;;;12.01;100.00
48668;BME280;34453;52.198;5.004;2023-04-26T12:41:41;102108.88;;;11.68;100.00
48668;BME280;34453;52.198;5.004;2023-04-26T12:44:08;102112.00;;;11.95;100.00
48668;BME280;34453;52.198;5.004;2023-04-26T12:46:34;102118.06;;;12.41;100.00
48668;BME280;34453;52.198;5.004;2023-04-26T12:49:00;102103.59;;;12.58;100.00
48668;BME280;34453;52.198;5.004;2023-04-26T12:51:26;102107.72;;;12.83;100.00
48668;BME280;34453;52.198;5.004;2023-04-26T12:53:51;102100.69;;;13.25;100.00
48668;BME280;34453;52.198;5.004;2023-04-26T12:56:17;102101.03;;;13.53;100.00
48668;BME280;34453;52.198;5.004;2023-04-26T12:58:42;102095.56;;;13.66;100.00
48668;BME280;34453;52.198;5.004;2023-04-26T13:01:08;102112.41;;;13.33;100.00
48668;BME280;34453;52.198;5.004;2023-04-26T13:03:34;102107.66;;;12.94;100.00
48668;BME280;34453;52.198;5.004;2023-04-26T13:06:00;102098.91;;;13.05;100.00